createdAt,value
2023-03-22T00:00:17.612Z,41.21
2023-03-22T00:03:06.863Z,41.19
2023-03-22T00:05:35.810Z,41.58
2023-03-22T00:08:07.272Z,41.41
2023-03-22T00:10:38.181Z,41.29
2023-03-22T00:13:10.810Z,41.57
2023-03-22T00:15:39.793Z,41.41
2023-03-22T00:18:08.283Z,41.02
2023-03-22T00:20:39.537Z,41.56
2023-03-22T00:23:09.168Z,41.54
2023-03-22T00:25:38.213Z,40.57
2023-03-22T00:28:08.176Z,40.07
2023-03-22T00:30:37.531Z,40.44
2023-03-22T00:33:06.892Z,40.82
2023-03-22T00:35:36.152Z,41.82
2023-03-22T00:38:14.235Z,42.42
2023-03-22T00:40:44.285Z,41.44
2023-03-22T00:43:14.632Z,41.45
2023-03-22T00:45:43.627Z,41.29
2023-03-22T00:48:13.246Z,43.13
2023-03-22T00:50:42.415Z,44.71
2023-03-22T00:53:11.118Z,46.05
2023-03-22T00:55:40.156Z,45.70
2023-03-22T00:58:08.894Z,45.42
2023-03-22T01:00:39.520Z,44.33
2023-03-22T01:03:08.769Z,43.32
2023-03-22T01:05:38.902Z,42.55
2023-03-22T01:08:09.460Z,43.06
2023-03-22T01:10:39.297Z,42.85
2023-03-22T01:13:08.884Z,42.82
2023-03-22T01:15:39.340Z,43.12
2023-03-22T01:18:07.937Z,42.59
2023-03-22T01:20:37.513Z,42.77
2023-03-22T01:23:06.312Z,42.17
2023-03-22T01:25:35.222Z,41.78
2023-03-22T01:28:03.904Z,41.61
2023-03-22T01:30:33.214Z,41.75
2023-03-22T01:33:03.308Z,41.75
2023-03-22T01:35:34.106Z,41.41
2023-03-22T01:38:02.852Z,41.03
2023-03-22T01:40:31.856Z,40.99
2023-03-22T01:43:01.969Z,40.89
2023-03-22T01:45:41.595Z,40.81
2023-03-22T01:48:20.939Z,40.70
2023-03-22T01:50:59.862Z,40.60
2023-03-22T01:53:33.702Z,40.59
2023-03-22T01:56:03.864Z,40.63
2023-03-22T01:58:37.160Z,41.32
2023-03-22T02:01:09.633Z,41.45
2023-03-22T02:03:52.411Z,41.71
2023-03-22T02:06:22.518Z,41.78
2023-03-22T02:08:58.546Z,42.11
2023-03-22T02:11:33.530Z,41.96
2023-03-22T02:14:27.488Z,42.13
2023-03-22T02:17:22.963Z,42.14
2023-03-22T02:20:38.423Z,41.95
2023-03-22T02:23:44.241Z,42.29
2023-03-22T02:26:46.975Z,41.83
2023-03-22T02:29:22.415Z,42.39
2023-03-22T02:32:34.157Z,42.17
2023-03-22T02:35:35.057Z,41.87
2023-03-22T02:38:37.776Z,42.76
2023-03-22T02:41:15.712Z,42.89
2023-03-22T02:43:56.832Z,42.86
2023-03-22T02:46:31.930Z,42.99
2023-03-22T02:49:07.879Z,43.44
2023-03-22T02:51:42.518Z,43.42
2023-03-22T02:54:19.664Z,43.63
2023-03-22T02:56:55.314Z,43.41
2023-03-22T02:59:27.222Z,43.78
2023-03-22T03:01:59.365Z,43.48
2023-03-22T03:04:32.255Z,43.68
2023-03-22T03:07:07.232Z,43.90
2023-03-22T03:09:37.718Z,43.70
2023-03-22T03:12:16.023Z,43.81
2023-03-22T03:14:44.875Z,44.05
2023-03-22T03:17:26.875Z,43.84
2023-03-22T03:20:12.707Z,44.32
2023-03-22T03:22:56.217Z,44.18
2023-03-22T03:25:35.189Z,44.15
2023-03-22T03:28:11.462Z,44.18
2023-03-22T03:30:48.087Z,44.56
2023-03-22T03:33:21.638Z,44.73
2023-03-22T03:35:56.020Z,44.79
2023-03-22T03:38:30.090Z,44.95
2023-03-22T03:41:05.056Z,45.00
2023-03-22T03:43:37.281Z,45.35
2023-03-22T03:46:08.835Z,45.16
2023-03-22T03:48:43.661Z,45.34
2023-03-22T03:51:12.658Z,46.04
2023-03-22T03:53:42.233Z,45.66
2023-03-22T03:56:11.749Z,45.58
2023-03-22T03:58:47.054Z,45.94
2023-03-22T04:01:19.693Z,45.81
2023-03-22T04:03:59.185Z,45.51
2023-03-22T04:06:43.797Z,45.63
2023-03-22T04:09:18.333Z,45.60
2023-03-22T04:11:51.711Z,45.59
2023-03-22T04:14:22.379Z,45.76
2023-03-22T04:16:54.479Z,45.97
2023-03-22T04:19:24.872Z,45.83
2023-03-22T04:21:53.824Z,46.14
2023-03-22T04:24:23.715Z,46.33
2023-03-22T04:26:54.985Z,46.17
2023-03-22T04:29:32.385Z,46.60
2023-03-22T04:32:17.040Z,46.80
2023-03-22T04:34:46.444Z,47.28
2023-03-22T04:37:18.261Z,46.80
2023-03-22T04:40:09.367Z,48.41
2023-03-22T04:42:48.096Z,47.74
2023-03-22T04:45:29.296Z,47.72
2023-03-22T04:48:03.374Z,47.54
2023-03-22T04:50:34.174Z,47.49
2023-03-22T04:53:05.833Z,47.65
2023-03-22T04:55:35.292Z,47.49
2023-03-22T04:58:04.198Z,47.86
2023-03-22T05:00:34.533Z,48.09
2023-03-22T05:03:04.493Z,48.01
2023-03-22T05:05:51.085Z,47.93
2023-03-22T05:08:21.359Z,48.20
2023-03-22T05:10:52.244Z,48.44
2023-03-22T05:13:22.055Z,48.29
2023-03-22T05:15:52.648Z,48.20
2023-03-22T05:18:26.904Z,48.26
2023-03-22T05:20:59.746Z,48.75
2023-03-22T05:23:28.442Z,48.41
2023-03-22T05:26:01.666Z,48.05
2023-03-22T05:28:31.946Z,48.08
2023-03-22T05:31:25.388Z,48.58
2023-03-22T05:33:59.049Z,48.11
2023-03-22T05:36:31.005Z,47.84
2023-03-22T05:39:16.046Z,47.96
2023-03-22T05:41:46.613Z,48.47
2023-03-22T05:44:15.990Z,50.24
2023-03-22T05:46:56.259Z,49.81
2023-03-22T05:49:31.845Z,49.99
2023-03-22T05:52:04.435Z,50.32
2023-03-22T05:54:47.190Z,50.29
2023-03-22T05:57:17.142Z,49.15
2023-03-22T05:59:45.765Z,49.01
2023-03-22T06:02:22.443Z,48.47
2023-03-22T06:04:52.561Z,48.45
2023-03-22T06:07:22.702Z,48.79
2023-03-22T06:09:59.162Z,48.77
2023-03-22T06:12:31.419Z,48.26
2023-03-22T06:15:18.631Z,47.54
2023-03-22T06:18:12.993Z,48.41
2023-03-22T06:20:45.747Z,48.00
2023-03-22T06:23:22.924Z,48.77
2023-03-22T06:25:51.682Z,48.33
2023-03-22T06:28:21.490Z,47.38
2023-03-22T06:30:52.752Z,47.26
2023-03-22T06:33:32.143Z,46.58
2023-03-22T06:36:07.584Z,45.78
2023-03-22T06:38:52.462Z,45.03
2023-03-22T06:41:21.551Z,46.14
2023-03-22T06:43:52.801Z,45.49
2023-03-22T06:46:41.507Z,47.47
2023-03-22T06:49:29.351Z,46.71
2023-03-22T06:51:59.383Z,47.54
2023-03-22T06:54:29.375Z,46.87
2023-03-22T06:56:57.997Z,47.01
2023-03-22T06:59:27.258Z,45.82
2023-03-22T07:01:56.045Z,44.89
2023-03-22T07:04:25.795Z,45.00
2023-03-22T07:06:56.883Z,44.87
2023-03-22T07:09:40.341Z,44.45
2023-03-22T07:12:10.030Z,44.72
2023-03-22T07:14:39.648Z,44.66
2023-03-22T07:17:46.566Z,44.01
2023-03-22T07:20:16.324Z,43.28
2023-03-22T07:22:47.051Z,42.77
2023-03-22T07:25:16.231Z,42.28
2023-03-22T07:27:46.203Z,43.18
2023-03-22T07:30:16.023Z,42.25
2023-03-22T07:32:47.981Z,42.31
2023-03-22T07:35:18.966Z,42.46
2023-03-22T07:37:52.243Z,42.33
2023-03-22T07:40:27.200Z,41.27
2023-03-22T07:42:58.992Z,40.30
2023-03-22T07:45:46.764Z,41.64
2023-03-22T07:48:39.158Z,40.55
2023-03-22T07:51:43.327Z,42.00
2023-03-22T07:54:22.734Z,41.76
2023-03-22T07:56:59.886Z,42.51
2023-03-22T07:59:28.871Z,41.23
2023-03-22T08:01:58.413Z,40.16
2023-03-22T08:04:32.085Z,40.03
2023-03-22T08:07:11.597Z,39.07
2023-03-22T08:09:41.669Z,38.71
2023-03-22T08:12:10.742Z,39.92
2023-03-22T08:14:40.934Z,39.33
2023-03-22T08:17:17.354Z,38.94
2023-03-22T08:19:46.766Z,39.76
2023-03-22T08:22:26.090Z,40.57
2023-03-22T08:25:19.375Z,40.59
2023-03-22T08:27:49.196Z,39.89
2023-03-22T08:30:18.039Z,39.56
2023-03-22T08:32:47.139Z,39.91
2023-03-22T08:35:15.788Z,39.91
2023-03-22T08:37:44.820Z,40.54
2023-03-22T08:40:13.948Z,41.89
2023-03-22T08:42:48.916Z,41.79
2023-03-22T08:45:18.281Z,40.71
2023-03-22T08:47:54.843Z,41.58
2023-03-22T08:50:26.974Z,40.78
2023-03-22T08:53:13.878Z,40.78
2023-03-22T08:55:46.395Z,42.23
2023-03-22T08:58:19.633Z,41.89
2023-03-22T09:01:07.577Z,40.48
2023-03-22T09:03:45.777Z,39.69
2023-03-22T09:06:15.144Z,38.72
2023-03-22T09:08:45.610Z,37.98
2023-03-22T09:11:18.042Z,36.63
2023-03-22T09:13:51.273Z,38.81
2023-03-22T09:16:20.843Z,40.04
2023-03-22T09:18:50.466Z,40.07
2023-03-22T09:21:23.105Z,40.77
2023-03-22T09:23:55.784Z,39.10
2023-03-22T09:26:31.487Z,40.56
2023-03-22T09:29:03.301Z,41.05
2023-03-22T09:31:32.228Z,40.79
2023-03-22T09:34:16.413Z,41.75
2023-03-22T09:36:45.469Z,41.50
2023-03-22T09:39:16.541Z,42.05
2023-03-22T09:41:51.733Z,41.50
2023-03-22T09:44:29.759Z,41.10
2023-03-22T09:47:02.193Z,41.05
2023-03-22T09:49:52.952Z,42.49
2023-03-22T09:52:22.884Z,43.13
2023-03-22T09:54:53.200Z,42.24
2023-03-22T09:57:30.258Z,41.60
2023-03-22T10:00:11.844Z,40.81
2023-03-22T10:02:54.522Z,40.00
2023-03-22T10:05:30.808Z,41.66
2023-03-22T10:08:33.914Z,41.68
2023-03-22T10:11:03.916Z,41.39
2023-03-22T10:13:40.480Z,40.27
2023-03-22T10:16:14.898Z,40.99
2023-03-22T10:18:48.290Z,39.71
2023-03-22T10:21:20.375Z,38.08
2023-03-22T10:23:56.290Z,37.62
2023-03-22T10:26:30.563Z,38.36
2023-03-22T10:29:03.991Z,38.70
2023-03-22T10:31:35.851Z,38.00
2023-03-22T10:34:08.043Z,37.58
2023-03-22T10:36:40.491Z,36.73
2023-03-22T10:39:18.379Z,35.57
2023-03-22T10:41:49.264Z,34.89
2023-03-22T10:44:21.341Z,34.30
2023-03-22T10:46:53.805Z,33.77
2023-03-22T10:49:28.523Z,33.36
2023-03-22T10:52:01.485Z,33.41
2023-03-22T10:54:30.421Z,33.31
2023-03-22T10:56:59.449Z,33.87
2023-03-22T10:59:46.025Z,34.09
2023-03-22T11:02:23.079Z,34.07
2023-03-22T11:04:53.876Z,33.44
2023-03-22T11:07:32.900Z,32.47
2023-03-22T11:10:24.300Z,33.27
2023-03-22T11:12:56.152Z,32.68
2023-03-22T11:15:28.427Z,32.09
2023-03-22T11:18:06.228Z,31.27
2023-03-22T11:20:36.300Z,31.20
2023-03-22T11:23:07.050Z,30.10
2023-03-22T11:25:38.074Z,31.39
2023-03-22T11:28:17.123Z,31.18
2023-03-22T11:31:00.684Z,30.49
2023-03-22T11:33:31.848Z,29.76
2023-03-22T11:36:03.494Z,29.13
2023-03-22T11:38:38.360Z,28.88
2023-03-22T11:41:13.059Z,29.09
2023-03-22T11:43:48.500Z,29.35
2023-03-22T11:46:20.088Z,29.78
2023-03-22T11:48:52.995Z,29.78
2023-03-22T11:51:30.991Z,30.12
2023-03-22T11:54:07.971Z,30.77
2023-03-22T11:56:42.603Z,31.69
2023-03-22T11:59:16.765Z,32.24
2023-03-22T12:01:50.328Z,29.98
2023-03-22T12:04:26.826Z,30.51
2023-03-22T12:06:59.233Z,30.88
2023-03-22T12:09:39.245Z,30.72
2023-03-22T12:12:15.125Z,30.40
2023-03-22T12:14:51.376Z,30.15
2023-03-22T12:17:30.037Z,31.69
2023-03-22T12:20:08.636Z,30.79
2023-03-22T12:22:42.245Z,29.60
2023-03-22T12:25:17.068Z,30.02
2023-03-22T12:27:51.222Z,29.27
2023-03-22T12:30:25.404Z,28.86
2023-03-22T12:33:01.695Z,29.20
2023-03-22T12:35:36.268Z,27.61
2023-03-22T12:38:19.977Z,25.81
2023-03-22T12:40:50.996Z,25.13
2023-03-22T12:43:33.515Z,25.23
2023-03-22T12:46:09.687Z,24.88
2023-03-22T12:48:46.435Z,26.62
2023-03-22T12:51:17.530Z,27.19
2023-03-22T12:53:48.962Z,26.39
2023-03-22T12:56:21.365Z,26.22
2023-03-22T12:58:56.222Z,26.16
2023-03-22T13:01:35.747Z,25.55
2023-03-22T13:04:31.396Z,25.80
2023-03-22T13:07:13.027Z,26.02
2023-03-22T13:09:43.931Z,26.06
2023-03-22T13:12:32.749Z,25.85
2023-03-22T13:15:41.353Z,25.41
2023-03-22T13:18:38.741Z,26.33
2023-03-22T13:21:15.498Z,28.37
2023-03-22T13:24:01.859Z,27.15
2023-03-22T13:26:39.536Z,27.08
2023-03-22T13:29:12.569Z,27.18
2023-03-22T13:31:45.415Z,28.11
2023-03-22T13:34:19.058Z,29.34
2023-03-22T13:36:53.979Z,30.12
2023-03-22T13:39:25.604Z,29.30
2023-03-22T13:42:19.833Z,29.07
2023-03-22T13:44:59.175Z,29.02
2023-03-22T13:47:34.545Z,28.29
2023-03-22T13:50:11.272Z,27.87
2023-03-22T13:52:43.423Z,27.75
2023-03-22T13:55:41.321Z,26.94
2023-03-22T13:58:33.102Z,26.94
2023-03-22T14:01:02.792Z,27.73
2023-03-22T14:03:35.063Z,27.32
2023-03-22T14:06:15.868Z,27.55
2023-03-22T14:08:47.337Z,27.51
2023-03-22T14:11:26.515Z,28.98
2023-03-22T14:14:00.693Z,28.90
2023-03-22T14:16:37.905Z,28.82
2023-03-22T14:19:08.582Z,28.18
2023-03-22T14:21:40.458Z,28.30
